sensor_id;sensor_type;location;lat;lon;timestamp;temperature;humidity
5459;DHT22;2752;49.992;8.422;2023-07-29T00:00:38;18.70;99.90
5459;DHT22;2752;49.992;8.422;2023-07-29T00:03:05;18.70;99.90
5459;DHT22;2752;49.992;8.422;2023-07-29T00:05:31;18.60;99.90
5459;DHT22;2752;49.992;8.422;2023-07-29T00:07:58;18.70;99.90
5459;DHT22;2752;49.992;8.422;2023-07-29T00:10:25;18.80;99.90
5459;DHT22;2752;49.992;8.422;2023-07-29T00:12:52;18.80;99.90
5459;DHT22;2752;49.992;8.422;2023-07-29T00:15:20;18.80;99.90
5459;DHT22;2752;49.992;8.422;2023-07-29T00:17:47;18.80;99.90
5459;DHT22;2752;49.992;8.422;2023-07-29T00:20:13;18.80;99.90
5459;DHT22;2752;49.992;8.422;2023-07-29T00:22:40;18.80;99.90
5459;DHT22;2752;49.992;8.422;2023-07-29T00:25:07;18.80;99.90
5459;DHT22;2752;49.992;8.422;2023-07-29T00:27:34;18.80;99.90
5459;DHT22;2752;49.992;8.422;2023-07-29T00:30:00;18.80;99.90
5459;DHT22;2752;49.992;8.422;2023-07-29T00:32:29;18.80;99.90
5459;DHT22;2752;49.992;8.422;2023-07-29T00:34:56;18.80;99.90
5459;DHT22;2752;49.992;8.422;2023-07-29T00:37:23;18.80;99.90
5459;DHT22;2752;49.992;8.422;2023-07-29T00:39:49;18.70;99.90
5459;DHT22;2752;49.992;8.422;2023-07-29T00:42:16;18.70;99.90
5459;DHT22;2752;49.992;8.422;2023-07-29T00:44:43;18.80;99.90
5459;DHT22;2752;49.992;8.422;2023-07-29T00:47:11;18.70;99.90
5459;DHT22;2752;49.992;8.422;2023-07-29T00:49:40;18.70;99.60
5459;DHT22;2752;49.992;8.422;2023-07-29T00:52:07;18.70;99.90
5459;DHT22;2752;49.992;8.422;2023-07-29T00:54:36;18.60;99.90
5459;DHT22;2752;49.992;8.422;2023-07-29T00:57:04;18.70;99.90
5459;DHT22;2752;49.992;8.422;2023-07-29T00:59:31;18.70;99.90
5459;DHT22;2752;49.992;8.422;2023-07-29T01:01:59;18.70;99.90
5459;DHT22;2752;49.992;8.422;2023-07-29T01:04:26;18.80;99.90
5459;DHT22;2752;49.992;8.422;2023-07-29T01:07:03;18.80;99.90
5459;DHT22;2752;49.992;8.422;2023-07-29T01:09:39;18.80;99.90
5459;DHT22;2752;49.992;8.422;2023-07-29T01:12:12;18.80;99.90
5459;DHT22;2752;49.992;8.422;2023-07-29T01:14:55;18.80;99.90
5459;DHT22;2752;49.992;8.422;2023-07-29T01:17:29;18.80;99.90
5459;DHT22;2752;49.992;8.422;2023-07-29T01:20:01;18.80;99.90
5459;DHT22;2752;49.992;8.422;2023-07-29T01:22:32;18.80;99.90
5459;DHT22;2752;49.992;8.422;2023-07-29T01:25:01;18.70;99.90
5459;DHT22;2752;49.992;8.422;2023-07-29T01:27:28;18.70;99.90
5459;DHT22;2752;49.992;8.422;2023-07-29T01:29:55;18.70;99.90
5459;DHT22;2752;49.992;8.422;2023-07-29T01:32:27;18.80;99.90
5459;DHT22;2752;49.992;8.422;2023-07-29T01:35:10;18.70;99.90
5459;DHT22;2752;49.992;8.422;2023-07-29T01:37:38;18.70;99.90
5459;DHT22;2752;49.992;8.422;2023-07-29T01:40:09;18.70;99.90
5459;DHT22;2752;49.992;8.422;2023-07-29T01:42:37;18.70;99.90
5459;DHT22;2752;49.992;8.422;2023-07-29T01:45:04;18.80;99.90
5459;DHT22;2752;49.992;8.422;2023-07-29T01:47:31;18.70;99.90
5459;DHT22;2752;49.992;8.422;2023-07-29T01:49:58;18.80;99.90
5459;DHT22;2752;49.992;8.422;2023-07-29T01:52:25;18.80;99.90
5459;DHT22;2752;49.992;8.422;2023-07-29T01:54:51;18.80;99.90
5459;DHT22;2752;49.992;8.422;2023-07-29T01:57:19;18.80;99.90
5459;DHT22;2752;49.992;8.422;2023-07-29T01:59:46;18.80;99.90
5459;DHT22;2752;49.992;8.422;2023-07-29T02:02:13;18.90;99.90
5459;DHT22;2752;49.992;8.422;2023-07-29T02:04:39;18.90;99.90
5459;DHT22;2752;49.992;8.422;2023-07-29T02:07:06;19.00;99.90
5459;DHT22;2752;49.992;8.422;2023-07-29T02:09:33;19.00;99.90
5459;DHT22;2752;49.992;8.422;2023-07-29T02:11:59;18.90;99.50
5459;DHT22;2752;49.992;8.422;2023-07-29T02:14:27;19.00;99.50
5459;DHT22;2752;49.992;8.422;2023-07-29T02:16:54;19.00;99.70
5459;DHT22;2752;49.992;8.422;2023-07-29T02:19:21;19.00;99.50
5459;DHT22;2752;49.992;8.422;2023-07-29T02:21:48;19.00;99.90
5459;DHT22;2752;49.992;8.422;2023-07-29T02:24:15;19.00;99.20
5459;DHT22;2752;49.992;8.422;2023-07-29T02:26:41;19.10;99.90
5459;DHT22;2752;49.992;8.422;2023-07-29T02:29:08;19.10;99.40
5459;DHT22;2752;49.992;8.422;2023-07-29T02:31:36;19.20;98.10
5459;DHT22;2752;49.992;8.422;2023-07-29T02:34:03;19.10;97.40
5459;DHT22;2752;49.992;8.422;2023-07-29T02:36:30;19.10;98.40
5459;DHT22;2752;49.992;8.422;2023-07-29T02:38:57;19.10;98.90
5459;DHT22;2752;49.992;8.422;2023-07-29T02:41:23;19.00;99.00
5459;DHT22;2752;49.992;8.422;2023-07-29T02:43:51;19.00;99.50
5459;DHT22;2752;49.992;8.422;2023-07-29T02:46:17;19.00;99.60
5459;DHT22;2752;49.992;8.422;2023-07-29T02:48:46;19.00;99.90
5459;DHT22;2752;49.992;8.422;2023-07-29T02:51:12;19.00;99.80
5459;DHT22;2752;49.992;8.422;2023-07-29T02:53:39;18.90;99.90
5459;DHT22;2752;49.992;8.422;2023-07-29T02:56:06;18.90;99.90
5459;DHT22;2752;49.992;8.422;2023-07-29T02:58:34;18.90;99.90
5459;DHT22;2752;49.992;8.422;2023-07-29T03:01:02;18.90;99.90
5459;DHT22;2752;49.992;8.422;2023-07-29T03:03:29;18.80;99.90
5459;DHT22;2752;49.992;8.422;2023-07-29T03:05:59;18.80;99.90
5459;DHT22;2752;49.992;8.422;2023-07-29T03:08:26;18.80;99.90
5459;DHT22;2752;49.992;8.422;2023-07-29T03:10:53;18.80;99.90
5459;DHT22;2752;49.992;8.422;2023-07-29T03:13:20;18.90;99.90
5459;DHT22;2752;49.992;8.422;2023-07-29T03:15:47;18.80;99.90
5459;DHT22;2752;49.992;8.422;2023-07-29T03:18:14;18.70;99.90
5459;DHT22;2752;49.992;8.422;2023-07-29T03:20:40;18.80;99.90
5459;DHT22;2752;49.992;8.422;2023-07-29T03:23:08;18.80;99.90
5459;DHT22;2752;49.992;8.422;2023-07-29T03:25:35;18.80;99.90
5459;DHT22;2752;49.992;8.422;2023-07-29T03:28:02;18.80;99.90
5459;DHT22;2752;49.992;8.422;2023-07-29T03:30:28;18.70;99.90
5459;DHT22;2752;49.992;8.422;2023-07-29T03:32:55;18.80;99.90
5459;DHT22;2752;49.992;8.422;2023-07-29T03:35:22;18.70;99.90
5459;DHT22;2752;49.992;8.422;2023-07-29T03:37:48;18.70;99.90
5459;DHT22;2752;49.992;8.422;2023-07-29T03:40:16;18.90;99.90
5459;DHT22;2752;49.992;8.422;2023-07-29T03:42:43;18.80;99.90
5459;DHT22;2752;49.992;8.422;2023-07-29T03:45:10;18.80;99.90
5459;DHT22;2752;49.992;8.422;2023-07-29T03:47:37;18.70;99.90
5459;DHT22;2752;49.992;8.422;2023-07-29T03:50:05;18.70;99.90
5459;DHT22;2752;49.992;8.422;2023-07-29T03:52:31;18.70;99.90
5459;DHT22;2752;49.992;8.422;2023-07-29T03:54:58;18.70;99.90
5459;DHT22;2752;49.992;8.422;2023-07-29T03:57:26;18.70;99.90
5459;DHT22;2752;49.992;8.422;2023-07-29T03:59:54;18.60;99.90
5459;DHT22;2752;49.992;8.422;2023-07-29T04:02:21;18.60;99.90
5459;DHT22;2752;49.992;8.422;2023-07-29T04:04:47;18.60;99.90
5459;DHT22;2752;49.992;8.422;2023-07-29T04:07:14;18.60;99.90
5459;DHT22;2752;49.992;8.422;2023-07-29T04:09:41;18.60;99.90
5459;DHT22;2752;49.992;8.422;2023-07-29T04:12:08;18.60;99.90
5459;DHT22;2752;49.992;8.422;2023-07-29T04:14:36;18.60;99.90
5459;DHT22;2752;49.992;8.422;2023-07-29T04:17:03;18.60;99.90
5459;DHT22;2752;49.992;8.422;2023-07-29T04:19:30;18.50;99.90
5459;DHT22;2752;49.992;8.422;2023-07-29T04:21:57;18.50;99.90
5459;DHT22;2752;49.992;8.422;2023-07-29T04:24:23;18.60;99.90
5459;DHT22;2752;49.992;8.422;2023-07-29T04:26:50;18.50;99.90
5459;DHT22;2752;49.992;8.422;2023-07-29T04:29:17;18.50;99.90
5459;DHT22;2752;49.992;8.422;2023-07-29T04:31:45;18.50;99.90
5459;DHT22;2752;49.992;8.422;2023-07-29T04:34:11;18.50;99.90
5459;DHT22;2752;49.992;8.422;2023-07-29T04:36:38;18.00;99.90
5459;DHT22;2752;49.992;8.422;2023-07-29T04:39:05;18.50;99.90
5459;DHT22;2752;49.992;8.422;2023-07-29T04:41:31;18.50;99.90
5459;DHT22;2752;49.992;8.422;2023-07-29T04:43:58;18.50;99.90
5459;DHT22;2752;49.992;8.422;2023-07-29T04:46:24;18.60;99.90
5459;DHT22;2752;49.992;8.422;2023-07-29T04:48:52;18.60;99.90
5459;DHT22;2752;49.992;8.422;2023-07-29T04:51:19;18.50;99.90
5459;DHT22;2752;49.992;8.422;2023-07-29T04:53:46;18.60;99.90
5459;DHT22;2752;49.992;8.422;2023-07-29T04:56:12;18.60;99.90
5459;DHT22;2752;49.992;8.422;2023-07-29T04:58:39;18.60;99.90
5459;DHT22;2752;49.992;8.422;2023-07-29T05:01:06;18.60;99.90
5459;DHT22;2752;49.992;8.422;2023-07-29T05:03:33;18.70;99.90
5459;DHT22;2752;49.992;8.422;2023-07-29T05:06:01;18.70;99.90
5459;DHT22;2752;49.992;8.422;2023-07-29T05:08:28;18.70;99.90
5459;DHT22;2752;49.992;8.422;2023-07-29T05:10:55;18.90;99.90
5459;DHT22;2752;49.992;8.422;2023-07-29T05:13:23;18.80;99.90
5459;DHT22;2752;49.992;8.422;2023-07-29T05:15:50;18.90;99.90
5459;DHT22;2752;49.992;8.422;2023-07-29T05:18:17;18.90;99.90
5459;DHT22;2752;49.992;8.422;2023-07-29T05:20:44;19.00;99.90
5459;DHT22;2752;49.992;8.422;2023-07-29T05:23:12;19.00;99.90
5459;DHT22;2752;49.992;8.422;2023-07-29T05:25:39;19.10;99.90
5459;DHT22;2752;49.992;8.422;2023-07-29T05:28:05;19.10;99.90
5459;DHT22;2752;49.992;8.422;2023-07-29T05:30:33;19.10;99.90
5459;DHT22;2752;49.992;8.422;2023-07-29T05:33:02;19.20;99.90
5459;DHT22;2752;49.992;8.422;2023-07-29T05:35:29;19.20;99.90
5459;DHT22;2752;49.992;8.422;2023-07-29T05:37:56;19.30;99.90
5459;DHT22;2752;49.992;8.422;2023-07-29T05:40:24;19.30;99.90
5459;DHT22;2752;49.992;8.422;2023-07-29T05:42:51;19.40;99.90
5459;DHT22;2752;49.992;8.422;2023-07-29T05:45:17;19.50;99.90
5459;DHT22;2752;49.992;8.422;2023-07-29T05:47:44;19.30;99.10
5459;DHT22;2752;49.992;8.422;2023-07-29T05:50:10;19.70;97.80
5459;DHT22;2752;49.992;8.422;2023-07-29T05:52:37;19.70;97.70
5459;DHT22;2752;49.992;8.422;2023-07-29T05:55:05;19.80;97.80
5459;DHT22;2752;49.992;8.422;2023-07-29T05:57:33;19.90;97.90
5459;DHT22;2752;49.992;8.422;2023-07-29T05:59:59;19.90;96.60
5459;DHT22;2752;49.992;8.422;2023-07-29T06:02:26;19.90;96.70
5459;DHT22;2752;49.992;8.422;2023-07-29T06:04:53;19.90;94.70
5459;DHT22;2752;49.992;8.422;2023-07-29T06:07:19;19.90;93.60
5459;DHT22;2752;49.992;8.422;2023-07-29T06:09:46;19.90;91.80
5459;DHT22;2752;49.992;8.422;2023-07-29T06:12:13;19.90;91.30
5459;DHT22;2752;49.992;8.422;2023-07-29T06:14:41;19.90;91.40
5459;DHT22;2752;49.992;8.422;2023-07-29T06:17:08;19.80;90.80
5459;DHT22;2752;49.992;8.422;2023-07-29T06:19:36;19.70;92.50
5459;DHT22;2752;49.992;8.422;2023-07-29T06:22:03;19.70;94.30
5459;DHT22;2752;49.992;8.422;2023-07-29T06:24:31;19.70;95.80
5459;DHT22;2752;49.992;8.422;2023-07-29T06:26:58;19.70;96.80
5459;DHT22;2752;49.992;8.422;2023-07-29T06:29:24;19.70;97.10
5459;DHT22;2752;49.992;8.422;2023-07-29T06:31:52;19.70;97.50
5459;DHT22;2752;49.992;8.422;2023-07-29T06:34:20;19.70;97.70
5459;DHT22;2752;49.992;8.422;2023-07-29T06:36:47;19.70;97.70
5459;DHT22;2752;49.992;8.422;2023-07-29T06:39:14;19.70;97.70
5459;DHT22;2752;49.992;8.422;2023-07-29T06:41:40;19.70;97.80
5459;DHT22;2752;49.992;8.422;2023-07-29T06:44:07;19.70;97.70
5459;DHT22;2752;49.992;8.422;2023-07-29T06:46:34;19.70;97.70
5459;DHT22;2752;49.992;8.422;2023-07-29T06:49:04;19.70;97.80
5459;DHT22;2752;49.992;8.422;2023-07-29T06:51:31;19.80;96.20
5459;DHT22;2752;49.992;8.422;2023-07-29T06:54:00;19.80;94.20
5459;DHT22;2752;49.992;8.422;2023-07-29T06:56:26;19.70;94.30
5459;DHT22;2752;49.992;8.422;2023-07-29T06:58:53;19.70;95.10
5459;DHT22;2752;49.992;8.422;2023-07-29T07:01:20;19.70;95.50
5459;DHT22;2752;49.992;8.422;2023-07-29T07:03:46;19.70;95.50
5459;DHT22;2752;49.992;8.422;2023-07-29T07:06:14;19.70;96.50
5459;DHT22;2752;49.992;8.422;2023-07-29T07:08:41;19.70;97.80
5459;DHT22;2752;49.992;8.422;2023-07-29T07:11:09;19.90;96.50
5459;DHT22;2752;49.992;8.422;2023-07-29T07:13:35;19.90;94.40
5459;DHT22;2752;49.992;8.422;2023-07-29T07:16:02;19.80;94.40
5459;DHT22;2752;49.992;8.422;2023-07-29T07:18:29;19.80;95.40
5459;DHT22;2752;49.992;8.422;2023-07-29T07:20:55;19.90;97.00
5459;DHT22;2752;49.992;8.422;2023-07-29T07:23:23;20.00;96.00
5459;DHT22;2752;49.992;8.422;2023-07-29T07:25:50;19.90;95.40
5459;DHT22;2752;49.992;8.422;2023-07-29T07:28:17;19.90;96.30
5459;DHT22;2752;49.992;8.422;2023-07-29T07:30:43;19.90;96.90
5459;DHT22;2752;49.992;8.422;2023-07-29T07:33:10;19.90;97.50
5459;DHT22;2752;49.992;8.422;2023-07-29T07:35:36;20.00;97.80
5459;DHT22;2752;49.992;8.422;2023-07-29T07:38:04;20.00;97.90
5459;DHT22;2752;49.992;8.422;2023-07-29T07:40:34;20.10;98.00
5459;DHT22;2752;49.992;8.422;2023-07-29T07:43:01;20.20;97.90
5459;DHT22;2752;49.992;8.422;2023-07-29T07:45:27;20.30;96.90
5459;DHT22;2752;49.992;8.422;2023-07-29T07:47:56;20.30;96.20
5459;DHT22;2752;49.992;8.422;2023-07-29T07:50:22;20.50;95.50
5459;DHT22;2752;49.992;8.422;2023-07-29T07:52:50;20.50;94.30
5459;DHT22;2752;49.992;8.422;2023-07-29T07:55:17;20.50;93.80
5459;DHT22;2752;49.992;8.422;2023-07-29T07:57:45;20.50;93.20
5459;DHT22;2752;49.992;8.422;2023-07-29T08:00:12;20.50;90.30
5459;DHT22;2752;49.992;8.422;2023-07-29T08:02:41;20.50;89.40
5459;DHT22;2752;49.992;8.422;2023-07-29T08:05:08;20.50;90.20
5459;DHT22;2752;49.992;8.422;2023-07-29T08:07:34;20.50;88.80
5459;DHT22;2752;49.992;8.422;2023-07-29T08:10:01;20.60;86.70
5459;DHT22;2752;49.992;8.422;2023-07-29T08:12:28;20.70;86.20
5459;DHT22;2752;49.992;8.422;2023-07-29T08:14:56;20.80;83.30
5459;DHT22;2752;49.992;8.422;2023-07-29T08:17:22;21.00;81.70
5459;DHT22;2752;49.992;8.422;2023-07-29T08:19:49;21.20;81.10
5459;DHT22;2752;49.992;8.422;2023-07-29T08:22:16;21.60;72.60
5459;DHT22;2752;49.992;8.422;2023-07-29T08:24:43;21.90;69.10
5459;DHT22;2752;49.992;8.422;2023-07-29T08:27:10;22.10;65.20
5459;DHT22;2752;49.992;8.422;2023-07-29T08:29:37;22.00;57.50
5459;DHT22;2752;49.992;8.422;2023-07-29T08:32:06;22.10;55.10
5459;DHT22;2752;49.992;8.422;2023-07-29T08:34:32;22.00;49.00
5459;DHT22;2752;49.992;8.422;2023-07-29T08:36:59;22.10;52.00
5459;DHT22;2752;49.992;8.422;2023-07-29T08:39:26;22.00;50.40
5459;DHT22;2752;49.992;8.422;2023-07-29T08:41:56;22.10;53.00
5459;DHT22;2752;49.992;8.422;2023-07-29T08:44:26;22.20;54.40
5459;DHT22;2752;49.992;8.422;2023-07-29T08:46:56;22.30;53.80
5459;DHT22;2752;49.992;8.422;2023-07-29T08:49:25;22.50;51.70
5459;DHT22;2752;49.992;8.422;2023-07-29T08:51:53;22.50;44.50
5459;DHT22;2752;49.992;8.422;2023-07-29T08:54:20;22.60;36.50
5459;DHT22;2752;49.992;8.422;2023-07-29T08:56:47;22.70;35.50
5459;DHT22;2752;49.992;8.422;2023-07-29T08:59:14;22.80;42.10
5459;DHT22;2752;49.992;8.422;2023-07-29T09:01:42;22.90;28.80
5459;DHT22;2752;49.992;8.422;2023-07-29T09:04:09;22.90;30.70
5459;DHT22;2752;49.992;8.422;2023-07-29T09:06:37;23.00;29.70
5459;DHT22;2752;49.992;8.422;2023-07-29T09:09:07;22.90;30.80
5459;DHT22;2752;49.992;8.422;2023-07-29T09:11:35;22.90;30.90
5459;DHT22;2752;49.992;8.422;2023-07-29T09:14:01;23.30;27.40
5459;DHT22;2752;49.992;8.422;2023-07-29T09:16:28;23.60;25.00
5459;DHT22;2752;49.992;8.422;2023-07-29T09:18:55;23.80;28.30
5459;DHT22;2752;49.992;8.422;2023-07-29T09:21:23;23.50;30.80
5459;DHT22;2752;49.992;8.422;2023-07-29T09:23:53;24.00;15.20
5459;DHT22;2752;49.992;8.422;2023-07-29T09:26:25;24.00;12.90
5459;DHT22;2752;49.992;8.422;2023-07-29T09:28:53;24.20;7.30
5459;DHT22;2752;49.992;8.422;2023-07-29T09:31:20;24.00;12.40
5459;DHT22;2752;49.992;8.422;2023-07-29T09:33:47;23.90;14.60
5459;DHT22;2752;49.992;8.422;2023-07-29T09:36:14;24.00;9.30
5459;DHT22;2752;49.992;8.422;2023-07-29T09:38:41;24.10;3.40
5459;DHT22;2752;49.992;8.422;2023-07-29T09:41:12;24.20;1.00
5459;DHT22;2752;49.992;8.422;2023-07-29T09:43:39;24.40;1.00
5459;DHT22;2752;49.992;8.422;2023-07-29T09:46:06;24.30;1.00
5459;DHT22;2752;49.992;8.422;2023-07-29T09:48:33;24.40;1.00
5459;DHT22;2752;49.992;8.422;2023-07-29T09:51:09;24.30;1.00
5459;DHT22;2752;49.992;8.422;2023-07-29T09:53:39;24.30;1.00
5459;DHT22;2752;49.992;8.422;2023-07-29T09:56:06;24.40;1.00
5459;DHT22;2752;49.992;8.422;2023-07-29T09:58:34;24.40;1.00
5459;DHT22;2752;49.992;8.422;2023-07-29T10:01:03;24.50;1.00
5459;DHT22;2752;49.992;8.422;2023-07-29T10:03:31;24.60;1.00
5459;DHT22;2752;49.992;8.422;2023-07-29T10:06:00;24.50;1.00
5459;DHT22;2752;49.992;8.422;2023-07-29T10:08:29;24.50;1.00
5459;DHT22;2752;49.992;8.422;2023-07-29T10:10:56;24.30;1.00
5459;DHT22;2752;49.992;8.422;2023-07-29T10:13:24;24.30;1.00
5459;DHT22;2752;49.992;8.422;2023-07-29T10:15:53;24.50;1.00
5459;DHT22;2752;49.992;8.422;2023-07-29T10:18:20;24.60;1.00
5459;DHT22;2752;49.992;8.422;2023-07-29T10:20:49;24.50;1.00
5459;DHT22;2752;49.992;8.422;2023-07-29T10:23:18;24.60;1.00
5459;DHT22;2752;49.992;8.422;2023-07-29T10:25:47;24.70;1.00
5459;DHT22;2752;49.992;8.422;2023-07-29T10:28:18;24.80;1.00
5459;DHT22;2752;49.992;8.422;2023-07-29T10:30:46;24.90;1.00
5459;DHT22;2752;49.992;8.422;2023-07-29T10:35:43;25.20;1.00
5459;DHT22;2752;49.992;8.422;2023-07-29T10:38:10;25.20;1.00
5459;DHT22;2752;49.992;8.422;2023-07-29T10:40:44;25.50;1.00
5459;DHT22;2752;49.992;8.422;2023-07-29T10:43:12;25.80;1.00
5459;DHT22;2752;49.992;8.422;2023-07-29T10:45:41;25.90;1.00
5459;DHT22;2752;49.992;8.422;2023-07-29T10:48:11;25.80;1.00
5459;DHT22;2752;49.992;8.422;2023-07-29T10:50:39;25.60;1.00
5459;DHT22;2752;49.992;8.422;2023-07-29T10:53:05;25.40;1.00
5459;DHT22;2752;49.992;8.422;2023-07-29T10:55:33;25.30;1.00
5459;DHT22;2752;49.992;8.422;2023-07-29T10:58:08;25.20;1.00
5459;DHT22;2752;49.992;8.422;2023-07-29T11:00:35;25.00;1.00
5459;DHT22;2752;49.992;8.422;2023-07-29T11:03:04;25.00;1.00
5459;DHT22;2752;49.992;8.422;2023-07-29T11:05:50;25.10;1.00
5459;DHT22;2752;49.992;8.422;2023-07-29T11:08:21;25.30;1.00
5459;DHT22;2752;49.992;8.422;2023-07-29T11:11:02;25.10;1.00
5459;DHT22;2752;49.992;8.422;2023-07-29T11:13:29;25.40;1.00
5459;DHT22;2752;49.992;8.422;2023-07-29T11:15:57;25.20;1.00
5459;DHT22;2752;49.992;8.422;2023-07-29T11:18:27;24.80;1.00
5459;DHT22;2752;49.992;8.422;2023-07-29T11:20:56;24.70;1.00
5459;DHT22;2752;49.992;8.422;2023-07-29T11:23:29;24.60;1.00
5459;DHT22;2752;49.992;8.422;2023-07-29T11:25:56;24.70;1.00
5459;DHT22;2752;49.992;8.422;2023-07-29T11:28:23;24.70;1.00
5459;DHT22;2752;49.992;8.422;2023-07-29T11:30:50;24.60;1.00
5459;DHT22;2752;49.992;8.422;2023-07-29T11:33:18;24.60;1.00
5459;DHT22;2752;49.992;8.422;2023-07-29T11:35:45;24.80;1.00
5459;DHT22;2752;49.992;8.422;2023-07-29T11:38:16;24.60;1.00
5459;DHT22;2752;49.992;8.422;2023-07-29T11:40:44;24.80;1.00
5459;DHT22;2752;49.992;8.422;2023-07-29T11:43:19;25.10;1.00
5459;DHT22;2752;49.992;8.422;2023-07-29T11:45:46;25.00;1.00
5459;DHT22;2752;49.992;8.422;2023-07-29T11:50:40;25.30;1.00
5459;DHT22;2752;49.992;8.422;2023-07-29T11:53:07;25.00;1.00
5459;DHT22;2752;49.992;8.422;2023-07-29T11:55:35;24.90;1.00
5459;DHT22;2752;49.992;8.422;2023-07-29T11:58:01;25.10;1.00
5459;DHT22;2752;49.992;8.422;2023-07-29T12:00:28;25.10;1.00
5459;DHT22;2752;49.992;8.422;2023-07-29T12:02:55;25.20;1.00
5459;DHT22;2752;49.992;8.422;2023-07-29T12:05:23;25.60;1.00
5459;DHT22;2752;49.992;8.422;2023-07-29T12:07:50;25.80;1.00
5459;DHT22;2752;49.992;8.422;2023-07-29T12:10:17;25.80;1.00
5459;DHT22;2752;49.992;8.422;2023-07-29T12:12:46;26.00;1.00
5459;DHT22;2752;49.992;8.422;2023-07-29T12:15:13;26.00;1.00
5459;DHT22;2752;49.992;8.422;2023-07-29T12:17:40;26.00;1.00
5459;DHT22;2752;49.992;8.422;2023-07-29T12:20:09;26.00;1.00
5459;DHT22;2752;49.992;8.422;2023-07-29T12:22:36;26.30;1.00
5459;DHT22;2752;49.992;8.422;2023-07-29T12:25:03;26.60;1.00
5459;DHT22;2752;49.992;8.422;2023-07-29T12:27:30;26.80;1.00
5459;DHT22;2752;49.992;8.422;2023-07-29T12:30:01;26.90;1.00
5459;DHT22;2752;49.992;8.422;2023-07-29T12:32:29;27.10;1.00
5459;DHT22;2752;49.992;8.422;2023-07-29T12:34:56;27.20;1.00
5459;DHT22;2752;49.992;8.422;2023-07-29T12:37:31;27.20;1.00
5459;DHT22;2752;49.992;8.422;2023-07-29T12:39:57;27.30;1.00
5459;DHT22;2752;49.992;8.422;2023-07-29T12:42:24;27.20;1.00
5459;DHT22;2752;49.992;8.422;2023-07-29T12:44:51;27.40;1.00
5459;DHT22;2752;49.992;8.422;2023-07-29T12:47:19;27.40;1.00
5459;DHT22;2752;49.992;8.422;2023-07-29T12:49:46;27.60;1.00
5459;DHT22;2752;49.992;8.422;2023-07-29T12:52:13;27.60;1.00
5459;DHT22;2752;49.992;8.422;2023-07-29T12:54:40;27.90;1.00
5459;DHT22;2752;49.992;8.422;2023-07-29T12:57:09;28.10;1.00
5459;DHT22;2752;49.992;8.422;2023-07-29T12:59:36;28.30;1.00
5459;DHT22;2752;49.992;8.422;2023-07-29T13:02:02;28.40;1.00
5459;DHT22;2752;49.992;8.422;2023-07-29T13:04:30;28.80;1.00
5459;DHT22;2752;49.992;8.422;2023-07-29T13:06:57;29.00;1.00
5459;DHT22;2752;49.992;8.422;2023-07-29T13:09:25;28.80;1.00
5459;DHT22;2752;49.992;8.422;2023-07-29T13:11:51;28.50;1.00
5459;DHT22;2752;49.992;8.422;2023-07-29T13:14:18;28.20;1.00
5459;DHT22;2752;49.992;8.422;2023-07-29T13:16:44;28.10;1.00
5459;DHT22;2752;49.992;8.422;2023-07-29T13:19:11;28.00;1.00
5459;DHT22;2752;49.992;8.422;2023-07-29T13:21:39;28.00;1.00
5459;DHT22;2752;49.992;8.422;2023-07-29T13:24:06;28.00;1.00
5459;DHT22;2752;49.992;8.422;2023-07-29T13:26:32;28.10;1.00
5459;DHT22;2752;49.992;8.422;2023-07-29T13:28:59;27.90;1.00
5459;DHT22;2752;49.992;8.422;2023-07-29T13:31:26;27.60;1.00
5459;DHT22;2752;49.992;8.422;2023-07-29T13:33:52;27.80;1.00
5459;DHT22;2752;49.992;8.422;2023-07-29T13:36:19;28.00;1.00
5459;DHT22;2752;49.992;8.422;2023-07-29T13:38:47;27.80;1.00
5459;DHT22;2752;49.992;8.422;2023-07-29T13:41:14;27.70;1.00
5459;DHT22;2752;49.992;8.422;2023-07-29T13:43:40;27.60;1.00
5459;DHT22;2752;49.992;8.422;2023-07-29T13:46:07;27.60;1.00
5459;DHT22;2752;49.992;8.422;2023-07-29T13:48:34;27.40;1.00
5459;DHT22;2752;49.992;8.422;2023-07-29T13:51:01;27.00;1.00
5459;DHT22;2752;49.992;8.422;2023-07-29T13:53:27;27.00;1.00
5459;DHT22;2752;49.992;8.422;2023-07-29T13:55:55;26.80;1.00
5459;DHT22;2752;49.992;8.422;2023-07-29T13:58:22;26.70;1.00
5459;DHT22;2752;49.992;8.422;2023-07-29T14:00:49;26.50;1.00
5459;DHT22;2752;49.992;8.422;2023-07-29T14:03:15;26.50;1.00
5459;DHT22;2752;49.992;8.422;2023-07-29T14:05:42;26.40;1.00
5459;DHT22;2752;49.992;8.422;2023-07-29T14:08:09;26.70;1.00
5459;DHT22;2752;49.992;8.422;2023-07-29T14:10:35;26.50;1.00
5459;DHT22;2752;49.992;8.422;2023-07-29T14:13:03;26.40;1.00
5459;DHT22;2752;49.992;8.422;2023-07-29T14:15:30;26.30;1.00
5459;DHT22;2752;49.992;8.422;2023-07-29T14:17:57;26.20;1.00
5459;DHT22;2752;49.992;8.422;2023-07-29T14:20:24;26.30;1.00
5459;DHT22;2752;49.992;8.422;2023-07-29T14:22:51;26.30;1.00
5459;DHT22;2752;49.992;8.422;2023-07-29T14:25:18;26.30;1.00
5459;DHT22;2752;49.992;8.422;2023-07-29T14:27:44;26.40;1.00
5459;DHT22;2752;49.992;8.422;2023-07-29T14:30:12;26.40;1.00
5459;DHT22;2752;49.992;8.422;2023-07-29T14:32:39;26.40;1.00
5459;DHT22;2752;49.992;8.422;2023-07-29T14:35:06;26.40;1.00
5459;DHT22;2752;49.992;8.422;2023-07-29T14:37:33;26.30;1.00
5459;DHT22;2752;49.992;8.422;2023-07-29T14:40:00;26.30;1.00
5459;DHT22;2752;49.992;8.422;2023-07-29T14:42:28;26.40;1.00
5459;DHT22;2752;49.992;8.422;2023-07-29T14:44:55;26.50;1.00
5459;DHT22;2752;49.992;8.422;2023-07-29T14:47:23;26.50;1.00
5459;DHT22;2752;49.992;8.422;2023-07-29T14:49:49;26.60;1.00
5459;DHT22;2752;49.992;8.422;2023-07-29T14:52:16;26.70;1.00
5459;DHT22;2752;49.992;8.422;2023-07-29T14:54:43;26.70;1.00
5459;DHT22;2752;49.992;8.422;2023-07-29T14:57:10;26.60;1.00
5459;DHT22;2752;49.992;8.422;2023-07-29T14:59:37;26.70;1.00
5459;DHT22;2752;49.992;8.422;2023-07-29T15:02:04;26.70;1.00
5459;DHT22;2752;49.992;8.422;2023-07-29T15:04:32;26.90;1.00
5459;DHT22;2752;49.992;8.422;2023-07-29T15:06:59;27.10;1.00
5459;DHT22;2752;49.992;8.422;2023-07-29T15:09:25;27.30;1.00
5459;DHT22;2752;49.992;8.422;2023-07-29T15:11:52;27.70;1.00
5459;DHT22;2752;49.992;8.422;2023-07-29T15:14:19;27.90;1.00
5459;DHT22;2752;49.992;8.422;2023-07-29T15:16:45;28.00;1.00
5459;DHT22;2752;49.992;8.422;2023-07-29T15:19:12;28.00;1.00
5459;DHT22;2752;49.992;8.422;2023-07-29T15:21:41;28.00;1.00
5459;DHT22;2752;49.992;8.422;2023-07-29T15:24:07;28.20;1.00
5459;DHT22;2752;49.992;8.422;2023-07-29T15:26:34;28.10;1.00
5459;DHT22;2752;49.992;8.422;2023-07-29T15:29:01;28.00;1.00
5459;DHT22;2752;49.992;8.422;2023-07-29T15:31:28;28.00;1.00
5459;DHT22;2752;49.992;8.422;2023-07-29T15:33:54;27.80;1.00
5459;DHT22;2752;49.992;8.422;2023-07-29T15:36:21;27.60;1.00
5459;DHT22;2752;49.992;8.422;2023-07-29T15:38:49;27.70;1.00
5459;DHT22;2752;49.992;8.422;2023-07-29T15:41:16;27.80;1.00
5459;DHT22;2752;49.992;8.422;2023-07-29T15:43:42;28.00;1.00
5459;DHT22;2752;49.992;8.422;2023-07-29T15:46:09;28.20;1.00
5459;DHT22;2752;49.992;8.422;2023-07-29T15:48:35;28.10;1.00
5459;DHT22;2752;49.992;8.422;2023-07-29T15:51:05;28.00;1.00
5459;DHT22;2752;49.992;8.422;2023-07-29T15:53:33;28.00;1.00
5459;DHT22;2752;49.992;8.422;2023-07-29T15:56:01;28.00;1.00
5459;DHT22;2752;49.992;8.422;2023-07-29T15:58:27;28.00;1.00
5459;DHT22;2752;49.992;8.422;2023-07-29T16:00:54;28.40;1.00
5459;DHT22;2752;49.992;8.422;2023-07-29T16:03:20;28.50;1.00
5459;DHT22;2752;49.992;8.422;2023-07-29T16:13:10;28.00;1.00
5459;DHT22;2752;49.992;8.422;2023-07-29T16:15:38;28.30;1.00
5459;DHT22;2752;49.992;8.422;2023-07-29T16:18:05;28.50;1.00
5459;DHT22;2752;49.992;8.422;2023-07-29T16:20:31;28.40;1.00